WAT475 VHHH-VMMC
Flight info
| Callsign | WAT475 |
|---|---|
| Flight time | 0h 41m |
| Altitude | 14000 |
| Route | PECAN DCT CHALI |
| Aircraft | SW4/L-SDFGIRY/S |
Departure
| Time | 2026-04-24 11:09 |
|---|---|
| Airport | Hong Kong International Airport (VHHH) |
Arrival
| Time | 2026-04-24 11:50 |
|---|---|
| Airport | Macau International Airport (VMMC) |
| Time | Latitude | Longitude | Altitude | Speed | Heading |
|---|---|---|---|---|---|
| 2026-04-24 10:33 | 22.30257 | 113.92870 | 27 ft | 0 kts | 162° |
| 2026-04-24 11:00 | 22.30250 | 113.92873 | 27 ft | 4 kts | 163° |
| 2026-04-24 11:00 | 22.30201 | 113.92841 | 27 ft | 12 kts | 239° |
| 2026-04-24 11:01 | 22.30165 | 113.92740 | 27 ft | 16 kts | 251° |
| 2026-04-24 11:01 | 22.30127 | 113.92619 | 27 ft | 17 kts | 251° |
| 2026-04-24 11:01 | 22.30085 | 113.92488 | 27 ft | 19 kts | 251° |
| 2026-04-24 11:01 | 22.30040 | 113.92350 | 27 ft | 19 kts | 250° |
| 2026-04-24 11:02 | 22.29994 | 113.92208 | 27 ft | 19 kts | 251° |
| 2026-04-24 11:02 | 22.29972 | 113.92102 | 27 ft | 11 kts | 292° |
| 2026-04-24 11:02 | 22.30043 | 113.92059 | 27 ft | 13 kts | 340° |
| 2026-04-24 11:02 | 22.30129 | 113.92020 | 27 ft | 10 kts | 315° |
| 2026-04-24 11:03 | 22.30123 | 113.91933 | 27 ft | 15 kts | 250° |
| 2026-04-24 11:03 | 22.30085 | 113.91811 | 27 ft | 18 kts | 251° |
| 2026-04-24 11:03 | 22.30041 | 113.91678 | 27 ft | 19 kts | 251° |
| 2026-04-24 11:03 | 22.29996 | 113.91537 | 27 ft | 19 kts | 251° |
| 2026-04-24 11:04 | 22.29950 | 113.91395 | 27 ft | 20 kts | 251° |
| 2026-04-24 11:04 | 22.29904 | 113.91252 | 27 ft | 20 kts | 251° |
| 2026-04-24 11:04 | 22.29857 | 113.91106 | 27 ft | 20 kts | 252° |
| 2026-04-24 11:04 | 22.29811 | 113.90962 | 27 ft | 20 kts | 251° |
| 2026-04-24 11:05 | 22.29764 | 113.90816 | 27 ft | 20 kts | 252° |
| 2026-04-24 11:05 | 22.29717 | 113.90671 | 27 ft | 20 kts | 252° |
| 2026-04-24 11:05 | 22.29670 | 113.90524 | 27 ft | 20 kts | 251° |
| 2026-04-24 11:05 | 22.29622 | 113.90377 | 27 ft | 20 kts | 251° |
| 2026-04-24 11:06 | 22.29574 | 113.90230 | 27 ft | 20 kts | 251° |
| 2026-04-24 11:06 | 22.29526 | 113.90081 | 27 ft | 20 kts | 251° |
| 2026-04-24 11:06 | 22.29483 | 113.89941 | 27 ft | 16 kts | 262° |
| 2026-04-24 11:06 | 22.29536 | 113.89841 | 27 ft | 14 kts | 332° |
| 2026-04-24 11:07 | 22.29656 | 113.89908 | 27 ft | 0 kts | 73° |
| 2026-04-24 11:08 | 22.29656 | 113.89909 | 27 ft | 2 kts | 73° |
| 2026-04-24 11:08 | 22.29786 | 113.90309 | 28 ft | 112 kts | 69° |
| 2026-04-24 11:08 | 22.30001 | 113.90923 | 181 ft | 140 kts | 70° |
| 2026-04-24 11:09 | 22.30326 | 113.91979 | 752 ft | 157 kts | 70° |
| 2026-04-24 11:09 | 22.30700 | 113.93118 | 1379 ft | 171 kts | 69° |
| 2026-04-24 11:09 | 22.31106 | 113.94375 | 2058 ft | 183 kts | 69° |
| 2026-04-24 11:09 | 22.31527 | 113.95691 | 2733 ft | 191 kts | 70° |
| 2026-04-24 11:10 | 22.31959 | 113.97044 | 3402 ft | 195 kts | 69° |
| 2026-04-24 11:10 | 22.32401 | 113.98431 | 4072 ft | 199 kts | 69° |
| 2026-04-24 11:10 | 22.32851 | 113.99834 | 4741 ft | 200 kts | 69° |
| 2026-04-24 11:10 | 22.33308 | 114.01257 | 5410 ft | 201 kts | 68° |
| 2026-04-24 11:11 | 22.33748 | 114.02689 | 6067 ft | 201 kts | 75° |
| 2026-04-24 11:11 | 22.33855 | 114.04196 | 6717 ft | 202 kts | 95° |
| 2026-04-24 11:11 | 22.33519 | 114.05628 | 7344 ft | 200 kts | 120° |
| 2026-04-24 11:11 | 22.32691 | 114.06832 | 7868 ft | 201 kts | 138° |
| 2026-04-24 11:12 | 22.31562 | 114.07658 | 8479 ft | 193 kts | 156° |
| 2026-04-24 11:12 | 22.30314 | 114.08247 | 8869 ft | 198 kts | 171° |
| 2026-04-24 11:12 | 22.28952 | 114.08501 | 9259 ft | 202 kts | 179° |
| 2026-04-24 11:12 | 22.27545 | 114.08611 | 9643 ft | 205 kts | 182° |
| 2026-04-24 11:13 | 22.26097 | 114.08656 | 10030 ft | 207 kts | 184° |
| 2026-04-24 11:13 | 22.24651 | 114.08672 | 10411 ft | 208 kts | 185° |
| 2026-04-24 11:13 | 22.23188 | 114.08667 | 10793 ft | 209 kts | 185° |
| 2026-04-24 11:13 | 22.21731 | 114.08657 | 11171 ft | 210 kts | 186° |
| 2026-04-24 11:14 | 22.20281 | 114.08645 | 11551 ft | 210 kts | 186° |
| 2026-04-24 11:14 | 22.18809 | 114.08632 | 11937 ft | 210 kts | 186° |
| 2026-04-24 11:14 | 22.17355 | 114.08620 | 12318 ft | 210 kts | 186° |
| 2026-04-24 11:14 | 22.15988 | 114.09180 | 12722 ft | 226 kts | 140° |
| 2026-04-24 11:15 | 22.15144 | 114.10644 | 13148 ft | 230 kts | 125° |
| 2026-04-24 11:15 | 22.14394 | 114.12182 | 13528 ft | 231 kts | 123° |
| 2026-04-24 11:15 | 22.13662 | 114.13710 | 13898 ft | 231 kts | 123° |
| 2026-04-24 11:15 | 22.12909 | 114.15286 | 14031 ft | 243 kts | 122° |
| 2026-04-24 11:16 | 22.12115 | 114.16956 | 14049 ft | 258 kts | 122° |
| 2026-04-24 11:16 | 22.11285 | 114.18703 | 14052 ft | 269 kts | 121° |
| 2026-04-24 11:16 | 22.10419 | 114.20527 | 14052 ft | 277 kts | 121° |
| 2026-04-24 11:16 | 22.09526 | 114.22405 | 14052 ft | 283 kts | 121° |
| 2026-04-24 11:17 | 22.08615 | 114.24319 | 14050 ft | 287 kts | 121° |
| 2026-04-24 11:17 | 22.07627 | 114.26170 | 14036 ft | 285 kts | 135° |
| 2026-04-24 11:17 | 22.06086 | 114.27473 | 14047 ft | 280 kts | 148° |
| 2026-04-24 11:17 | 22.04512 | 114.28721 | 14046 ft | 282 kts | 148° |
| 2026-04-24 11:18 | 22.02916 | 114.29983 | 14045 ft | 283 kts | 148° |
| 2026-04-24 11:18 | 22.01331 | 114.31235 | 14044 ft | 284 kts | 149° |
| 2026-04-24 11:18 | 21.99714 | 114.32510 | 14044 ft | 285 kts | 149° |
| 2026-04-24 11:18 | 21.98108 | 114.33772 | 14043 ft | 285 kts | 149° |
| 2026-04-24 11:19 | 21.96350 | 114.34558 | 14023 ft | 271 kts | 179° |
| 2026-04-24 11:19 | 21.94557 | 114.34180 | 14028 ft | 258 kts | 211° |
| 2026-04-24 11:19 | 21.93111 | 114.33039 | 14039 ft | 256 kts | 219° |
| 2026-04-24 11:19 | 21.91701 | 114.31880 | 14037 ft | 256 kts | 220° |
| 2026-04-24 11:20 | 21.90292 | 114.30704 | 14041 ft | 256 kts | 220° |
| 2026-04-24 11:20 | 21.88867 | 114.29504 | 14043 ft | 257 kts | 220° |
| 2026-04-24 11:20 | 21.87467 | 114.28319 | 14044 ft | 257 kts | 220° |
| 2026-04-24 11:20 | 21.86057 | 114.27123 | 14044 ft | 258 kts | 221° |
| 2026-04-24 11:21 | 21.84648 | 114.25925 | 14043 ft | 258 kts | 221° |
| 2026-04-24 11:21 | 21.83240 | 114.24728 | 14043 ft | 258 kts | 221° |
| 2026-04-24 11:21 | 21.81830 | 114.23529 | 14043 ft | 258 kts | 221° |
| 2026-04-24 11:21 | 21.80408 | 114.22319 | 14043 ft | 258 kts | 221° |
| 2026-04-24 11:22 | 21.79011 | 114.21132 | 14043 ft | 258 kts | 221° |
| 2026-04-24 11:22 | 21.77601 | 114.19933 | 14042 ft | 258 kts | 221° |
| 2026-04-24 11:22 | 21.76174 | 114.18720 | 14042 ft | 258 kts | 221° |
| 2026-04-24 11:22 | 21.74769 | 114.17526 | 14042 ft | 258 kts | 221° |
| 2026-04-24 11:23 | 21.73366 | 114.16333 | 14042 ft | 258 kts | 221° |
| 2026-04-24 11:23 | 21.71944 | 114.15125 | 14042 ft | 258 kts | 221° |
| 2026-04-24 11:23 | 21.70541 | 114.13934 | 14041 ft | 258 kts | 221° |
| 2026-04-24 11:23 | 21.69131 | 114.12736 | 14041 ft | 258 kts | 221° |
| 2026-04-24 11:24 | 21.67712 | 114.11532 | 14041 ft | 258 kts | 221° |
| 2026-04-24 11:24 | 21.66299 | 114.10332 | 14041 ft | 258 kts | 221° |
| 2026-04-24 11:24 | 21.64893 | 114.09152 | 14036 ft | 259 kts | 218° |
| 2026-04-24 11:24 | 21.63165 | 114.08518 | 14058 ft | 263 kts | 198° |
| 2026-04-24 11:25 | 21.61392 | 114.08040 | 14045 ft | 264 kts | 197° |
| 2026-04-24 11:25 | 21.59589 | 114.07565 | 14039 ft | 264 kts | 198° |
| 2026-04-24 11:25 | 21.57216 | 114.06945 | 14035 ft | 264 kts | 198° |
| 2026-04-24 11:25 | 21.56009 | 114.06632 | 14034 ft | 264 kts | 198° |
| 2026-04-24 11:26 | 21.54227 | 114.06170 | 14030 ft | 265 kts | 198° |
| 2026-04-24 11:26 | 21.52414 | 114.05700 | 14026 ft | 265 kts | 198° |
| 2026-04-24 11:26 | 21.50629 | 114.05237 | 14022 ft | 265 kts | 198° |
| 2026-04-24 11:26 | 21.48843 | 114.04775 | 14017 ft | 265 kts | 198° |
| 2026-04-24 11:27 | 21.47039 | 114.04307 | 14015 ft | 265 kts | 198° |
| 2026-04-24 11:27 | 21.45229 | 114.03827 | 14014 ft | 263 kts | 201° |
| 2026-04-24 11:27 | 21.43778 | 114.02757 | 13999 ft | 255 kts | 234° |
| 2026-04-24 11:27 | 21.43081 | 114.01035 | 14014 ft | 254 kts | 250° |
| 2026-04-24 11:28 | 21.42471 | 113.99248 | 14014 ft | 254 kts | 250° |
| 2026-04-24 11:28 | 21.41869 | 113.97473 | 14014 ft | 254 kts | 250° |
| 2026-04-24 11:28 | 21.41261 | 113.95675 | 14013 ft | 255 kts | 250° |
| 2026-04-24 11:28 | 21.40657 | 113.93883 | 14013 ft | 255 kts | 250° |
| 2026-04-24 11:29 | 21.40059 | 113.92113 | 14012 ft | 255 kts | 250° |
| 2026-04-24 11:29 | 21.39457 | 113.90329 | 14012 ft | 255 kts | 250° |
| 2026-04-24 11:29 | 21.38852 | 113.88535 | 14012 ft | 255 kts | 250° |
| 2026-04-24 11:29 | 21.38252 | 113.86760 | 14011 ft | 255 kts | 250° |
| 2026-04-24 11:30 | 21.37645 | 113.84962 | 14013 ft | 255 kts | 250° |
| 2026-04-24 11:30 | 21.37045 | 113.83185 | 14015 ft | 255 kts | 250° |
| 2026-04-24 11:30 | 21.36441 | 113.81399 | 14018 ft | 255 kts | 250° |
| 2026-04-24 11:30 | 21.35838 | 113.79614 | 14020 ft | 255 kts | 250° |
| 2026-04-24 11:31 | 21.35237 | 113.77845 | 14013 ft | 239 kts | 249° |
| 2026-04-24 11:31 | 21.34705 | 113.76223 | 13703 ft | 230 kts | 249° |
| 2026-04-24 11:31 | 21.34155 | 113.74613 | 13297 ft | 226 kts | 249° |
| 2026-04-24 11:31 | 21.33627 | 113.73063 | 12903 ft | 223 kts | 249° |
| 2026-04-24 11:32 | 21.32923 | 113.70991 | 12356 ft | 220 kts | 250° |
| 2026-04-24 11:32 | 21.32574 | 113.69964 | 12081 ft | 219 kts | 250° |
| 2026-04-24 11:32 | 21.32059 | 113.68447 | 11672 ft | 217 kts | 250° |
| 2026-04-24 11:32 | 21.31545 | 113.66932 | 11259 ft | 216 kts | 250° |
| 2026-04-24 11:33 | 21.31040 | 113.65446 | 11019 ft | 206 kts | 250° |
| 2026-04-24 11:33 | 21.30576 | 113.64043 | 10979 ft | 192 kts | 254° |
| 2026-04-24 11:33 | 21.30764 | 113.62695 | 10961 ft | 193 kts | 298° |
| 2026-04-24 11:33 | 21.31936 | 113.61816 | 10894 ft | 223 kts | 339° |
| 2026-04-24 11:34 | 21.33543 | 113.61926 | 10735 ft | 248 kts | 18° |
| 2026-04-24 11:34 | 21.35114 | 113.62769 | 10521 ft | 259 kts | 23° |
| 2026-04-24 11:34 | 21.36765 | 113.63665 | 10290 ft | 268 kts | 24° |
| 2026-04-24 11:34 | 21.38444 | 113.64571 | 10057 ft | 274 kts | 24° |
| 2026-04-24 11:35 | 21.40180 | 113.65501 | 9816 ft | 278 kts | 24° |
| 2026-04-24 11:35 | 21.41911 | 113.66427 | 9577 ft | 281 kts | 24° |
| 2026-04-24 11:35 | 21.43650 | 113.67357 | 9495 ft | 276 kts | 24° |
| 2026-04-24 11:35 | 21.45375 | 113.68256 | 9358 ft | 275 kts | 21° |
| 2026-04-24 11:36 | 21.47174 | 113.69059 | 9109 ft | 278 kts | 20° |
| 2026-04-24 11:36 | 21.48956 | 113.69853 | 8873 ft | 281 kts | 20° |
| 2026-04-24 11:36 | 21.50778 | 113.70668 | 8633 ft | 283 kts | 20° |
| 2026-04-24 11:36 | 21.52604 | 113.71504 | 8392 ft | 284 kts | 22° |
| 2026-04-24 11:37 | 21.54398 | 113.72372 | 8166 ft | 285 kts | 22° |
| 2026-04-24 11:37 | 21.56225 | 113.73251 | 7937 ft | 286 kts | 22° |
| 2026-04-24 11:37 | 21.58047 | 113.74123 | 7705 ft | 280 kts | 22° |
| 2026-04-24 11:37 | 21.59778 | 113.74953 | 7466 ft | 268 kts | 22° |
| 2026-04-24 11:38 | 21.61457 | 113.75757 | 7216 ft | 260 kts | 22° |
| 2026-04-24 11:38 | 21.63086 | 113.76540 | 6967 ft | 254 kts | 22° |
| 2026-04-24 11:38 | 21.64712 | 113.77214 | 6708 ft | 245 kts | 3° |
| 2026-04-24 11:38 | 21.66306 | 113.76868 | 6502 ft | 230 kts | 338° |
| 2026-04-24 11:39 | 21.67829 | 113.76333 | 6260 ft | 228 kts | 337° |
| 2026-04-24 11:39 | 21.69320 | 113.75798 | 6044 ft | 226 kts | 336° |
| 2026-04-24 11:39 | 21.70811 | 113.75263 | 6008 ft | 234 kts | 337° |
| 2026-04-24 11:39 | 21.72443 | 113.74665 | 6009 ft | 254 kts | 337° |
| 2026-04-24 11:40 | 21.74166 | 113.74030 | 6004 ft | 268 kts | 337° |
| 2026-04-24 11:40 | 21.75957 | 113.73378 | 5997 ft | 276 kts | 338° |
| 2026-04-24 11:40 | 21.77814 | 113.72708 | 5996 ft | 277 kts | 338° |
| 2026-04-24 11:40 | 21.79547 | 113.72070 | 5985 ft | 252 kts | 338° |
| 2026-04-24 11:41 | 21.81124 | 113.71516 | 5977 ft | 224 kts | 337° |
| 2026-04-24 11:41 | 21.82535 | 113.71005 | 5976 ft | 201 kts | 337° |
| 2026-04-24 11:41 | 21.83813 | 113.70543 | 5975 ft | 183 kts | 336° |
| 2026-04-24 11:41 | 21.84978 | 113.70120 | 5840 ft | 175 kts | 335° |
| 2026-04-24 11:42 | 21.86141 | 113.69692 | 5640 ft | 176 kts | 336° |
| 2026-04-24 11:42 | 21.87320 | 113.69257 | 5438 ft | 182 kts | 336° |
| 2026-04-24 11:42 | 21.88533 | 113.68813 | 5219 ft | 187 kts | 336° |
| 2026-04-24 11:42 | 21.89796 | 113.68350 | 4981 ft | 192 kts | 336° |
| 2026-04-24 11:43 | 21.91071 | 113.67883 | 4732 ft | 196 kts | 337° |
| 2026-04-24 11:43 | 21.92386 | 113.67401 | 4468 ft | 200 kts | 337° |
| 2026-04-24 11:43 | 21.93710 | 113.66917 | 4197 ft | 202 kts | 338° |
| 2026-04-24 11:43 | 21.95054 | 113.66426 | 3919 ft | 204 kts | 338° |
| 2026-04-24 11:44 | 21.96376 | 113.65942 | 3630 ft | 188 kts | 338° |
| 2026-04-24 11:44 | 21.97542 | 113.65518 | 3363 ft | 165 kts | 339° |
| 2026-04-24 11:44 | 21.98549 | 113.65155 | 3127 ft | 141 kts | 338° |
| 2026-04-24 11:44 | 21.99393 | 113.64848 | 2930 ft | 112 kts | 338° |
| 2026-04-24 11:45 | 22.00134 | 113.64578 | 2790 ft | 110 kts | 339° |
| 2026-04-24 11:45 | 22.00852 | 113.64314 | 2644 ft | 103 kts | 340° |
| 2026-04-24 11:45 | 22.01522 | 113.64067 | 2423 ft | 104 kts | 339° |
| 2026-04-24 11:45 | 22.02211 | 113.63808 | 2273 ft | 102 kts | 341° |
| 2026-04-24 11:46 | 22.02883 | 113.63571 | 2110 ft | 104 kts | 339° |
| 2026-04-24 11:46 | 22.03561 | 113.63317 | 1971 ft | 100 kts | 342° |
| 2026-04-24 11:46 | 22.04231 | 113.63070 | 1785 ft | 103 kts | 337° |
| 2026-04-24 11:46 | 22.04890 | 113.62849 | 1691 ft | 98 kts | 343° |
| 2026-04-24 11:47 | 22.05554 | 113.62569 | 1535 ft | 105 kts | 337° |
| 2026-04-24 11:47 | 22.06245 | 113.62359 | 1427 ft | 104 kts | 339° |
| 2026-04-24 11:47 | 22.06917 | 113.62079 | 1323 ft | 101 kts | 346° |
| 2026-04-24 11:47 | 22.07603 | 113.61836 | 1143 ft | 105 kts | 333° |
| 2026-04-24 11:48 | 22.08296 | 113.61569 | 999 ft | 116 kts | 341° |
| 2026-04-24 11:48 | 22.09146 | 113.61302 | 939 ft | 128 kts | 340° |
| 2026-04-24 11:48 | 22.09931 | 113.61002 | 895 ft | 109 kts | 341° |
| 2026-04-24 11:48 | 22.10617 | 113.60754 | 756 ft | 99 kts | 341° |
| 2026-04-24 11:49 | 22.11278 | 113.60531 | 592 ft | 102 kts | 341° |
| 2026-04-24 11:49 | 22.11937 | 113.60277 | 439 ft | 96 kts | 340° |
| 2026-04-24 11:49 | 22.12572 | 113.60034 | 291 ft | 99 kts | 341° |
| 2026-04-24 11:49 | 22.13217 | 113.59782 | 158 ft | 96 kts | 340° |
| 2026-04-24 11:50 | 22.13846 | 113.59557 | 29 ft | 97 kts | 340° |
| 2026-04-24 11:50 | 22.14443 | 113.59328 | 8 ft | 67 kts | 340° |
| 2026-04-24 11:50 | 22.14711 | 113.59225 | 8 ft | 25 kts | 339° |
| 2026-04-24 11:50 | 22.14867 | 113.59168 | 8 ft | 22 kts | 341° |
| 2026-04-24 11:51 | 22.15006 | 113.59117 | 8 ft | 19 kts | 339° |
| 2026-04-24 11:51 | 22.15132 | 113.59078 | 8 ft | 18 kts | 350° |
| 2026-04-24 11:51 | 22.15241 | 113.59028 | 8 ft | 16 kts | 341° |
| 2026-04-24 11:51 | 22.15346 | 113.58989 | 8 ft | 15 kts | 342° |
| 2026-04-24 11:52 | 22.15445 | 113.58954 | 8 ft | 14 kts | 341° |
| 2026-04-24 11:52 | 22.15541 | 113.58921 | 8 ft | 14 kts | 340° |
| 2026-04-24 11:52 | 22.15631 | 113.58886 | 8 ft | 13 kts | 340° |
| 2026-04-24 11:52 | 22.15718 | 113.58852 | 8 ft | 13 kts | 340° |
| 2026-04-24 11:53 | 22.15805 | 113.58819 | 8 ft | 12 kts | 341° |
| 2026-04-24 11:53 | 22.15889 | 113.58788 | 8 ft | 12 kts | 342° |
| 2026-04-24 11:53 | 22.15973 | 113.58759 | 7 ft | 12 kts | 342° |
| 2026-04-24 11:53 | 22.16060 | 113.58727 | 6 ft | 13 kts | 341° |
| 2026-04-24 11:54 | 22.16147 | 113.58695 | 6 ft | 13 kts | 339° |
| 2026-04-24 11:54 | 22.16204 | 113.58620 | 5 ft | 15 kts | 283° |
| 2026-04-24 11:54 | 22.16226 | 113.58502 | 5 ft | 16 kts | 282° |
| 2026-04-24 11:54 | 22.16249 | 113.58379 | 5 ft | 16 kts | 282° |
| 2026-04-24 11:55 | 22.16245 | 113.58252 | 5 ft | 18 kts | 255° |
| 2026-04-24 11:55 | 22.16202 | 113.58115 | 5 ft | 19 kts | 251° |
| 2026-04-24 11:55 | 22.16157 | 113.57973 | 5 ft | 20 kts | 251° |
| 2026-04-24 11:55 | 22.16113 | 113.57832 | 8 ft | 19 kts | 248° |
| 2026-04-24 11:56 | 22.16053 | 113.57751 | 13 ft | 15 kts | 193° |
| 2026-04-24 11:56 | 22.15926 | 113.57715 | 13 ft | 19 kts | 195° |
| 2026-04-24 11:56 | 22.15811 | 113.57682 | 14 ft | 15 kts | 197° |
| 2026-04-24 11:56 | 22.15752 | 113.57696 | 12 ft | 9 kts | 119° |
| 2026-04-24 11:57 | 22.15734 | 113.57742 | 10 ft | 3 kts | 112° |
| 2026-04-24 11:57 | 22.15730 | 113.57752 | 10 ft | 0 kts | 112° |